sensor_id;sensor_type;location;lat;lon;timestamp;pressure;altitude;pressure_sealevel;temperature;humidity
61573;BME280;47465;43.094;12.434;2023-04-24T00:02:12;98226.81;;;13.57;63.40
61573;BME280;47465;43.094;12.434;2023-04-24T00:04:40;98219.81;;;13.54;64.00
61573;BME280;47465;43.094;12.434;2023-04-24T00:07:06;98232.31;;;13.54;64.79
61573;BME280;47465;43.094;12.434;2023-04-24T00:09:32;98207.19;;;13.39;65.58
61573;BME280;47465;43.094;12.434;2023-04-24T00:11:58;98231.53;;;13.52;66.29
61573;BME280;47465;43.094;12.434;2023-04-24T00:14:25;98205.47;;;13.38;66.99
61573;BME280;47465;43.094;12.434;2023-04-24T00:16:51;98215.72;;;13.47;67.86
61573;BME280;47465;43.094;12.434;2023-04-24T00:19:17;98183.66;;;13.28;68.09
61573;BME280;47465;43.094;12.434;2023-04-24T00:21:44;98194.78;;;13.38;68.56
61573;BME280;47465;43.094;12.434;2023-04-24T00:24:10;98205.31;;;13.41;69.00
61573;BME280;47465;43.094;12.434;2023-04-24T00:26:36;98185.50;;;13.26;69.34
61573;BME280;47465;43.094;12.434;2023-04-24T00:29:02;98212.38;;;13.42;69.67
61573;BME280;47465;43.094;12.434;2023-04-24T00:31:28;98204.81;;;13.52;69.47
61573;BME280;47465;43.094;12.434;2023-04-24T00:33:55;98168.28;;;13.33;69.41
61573;BME280;47465;43.094;12.434;2023-04-24T00:36:21;98167.66;;;13.28;70.03
61573;BME280;47465;43.094;12.434;2023-04-24T00:38:48;98169.66;;;13.23;70.61
61573;BME280;47465;43.094;12.434;2023-04-24T00:41:14;98209.50;;;13.47;70.99
61573;BME280;47465;43.094;12.434;2023-04-24T00:43:41;98171.13;;;13.30;71.17
61573;BME280;47465;43.094;12.434;2023-04-24T00:46:07;98196.84;;;13.50;71.93
61573;BME280;47465;43.094;12.434;2023-04-24T00:48:33;98195.44;;;13.43;72.42
61573;BME280;47465;43.094;12.434;2023-04-24T00:50:59;98221.19;;;13.63;72.58
61573;BME280;47465;43.094;12.434;2023-04-24T00:53:25;98210.50;;;13.63;72.53
61573;BME280;47465;43.094;12.434;2023-04-24T00:55:52;98182.88;;;13.45;72.73
61573;BME280;47465;43.094;12.434;2023-04-24T00:58:19;98214.81;;;13.66;73.22
61573;BME280;47465;43.094;12.434;2023-04-24T01:00:45;98179.75;;;13.54;73.70
61573;BME280;47465;43.094;12.434;2023-04-24T01:03:12;98198.72;;;13.67;74.03
61573;BME280;47465;43.094;12.434;2023-04-24T01:05:39;98166.56;;;13.51;74.05
61573;BME280;47465;43.094;12.434;2023-04-24T01:08:07;98171.44;;;13.61;73.42
61573;BME280;47465;43.094;12.434;2023-04-24T01:10:34;98171.28;;;13.64;73.26
61573;BME280;47465;43.094;12.434;2023-04-24T01:13:03;98141.84;;;13.46;73.50
61573;BME280;47465;43.094;12.434;2023-04-24T01:15:29;98132.84;;;13.49;73.65
61573;BME280;47465;43.094;12.434;2023-04-24T01:17:55;98158.00;;;13.62;73.48
61573;BME280;47465;43.094;12.434;2023-04-24T01:20:21;98158.47;;;13.70;73.54
61573;BME280;47465;43.094;12.434;2023-04-24T01:22:49;98134.97;;;13.60;74.27
61573;BME280;47465;43.094;12.434;2023-04-24T01:25:15;98148.03;;;13.66;75.87
61573;BME280;47465;43.094;12.434;2023-04-24T01:27:41;98146.13;;;13.68;76.24
61573;BME280;47465;43.094;12.434;2023-04-24T01:30:08;98178.41;;;13.82;77.76
61573;BME280;47465;43.094;12.434;2023-04-24T01:32:35;98135.63;;;13.65;78.89
61573;BME280;47465;43.094;12.434;2023-04-24T01:35:02;98154.81;;;13.73;81.57
61573;BME280;47465;43.094;12.434;2023-04-24T01:37:28;98140.66;;;13.71;82.08
61573;BME280;47465;43.094;12.434;2023-04-24T01:39:55;98141.22;;;13.77;82.54
61573;BME280;47465;43.094;12.434;2023-04-24T01:42:22;98114.31;;;13.63;83.86
61573;BME280;47465;43.094;12.434;2023-04-24T01:44:48;98113.53;;;13.61;84.61
61573;BME280;47465;43.094;12.434;2023-04-24T01:47:15;98106.47;;;13.60;85.22
61573;BME280;47465;43.094;12.434;2023-04-24T01:49:41;98124.31;;;13.77;86.22
61573;BME280;47465;43.094;12.434;2023-04-24T01:52:06;98114.72;;;13.73;86.68
61573;BME280;47465;43.094;12.434;2023-04-24T01:54:33;98117.66;;;13.86;86.34
61573;BME280;47465;43.094;12.434;2023-04-24T01:57:00;98086.34;;;13.70;86.21
61573;BME280;47465;43.094;12.434;2023-04-24T01:59:28;98087.91;;;13.74;86.19
61573;BME280;47465;43.094;12.434;2023-04-24T02:01:54;98076.66;;;13.68;86.32
61573;BME280;47465;43.094;12.434;2023-04-24T02:04:20;98096.34;;;13.84;85.89
61573;BME280;47465;43.094;12.434;2023-04-24T02:06:46;98080.78;;;13.75;85.77
61573;BME280;47465;43.094;12.434;2023-04-24T02:09:11;98123.38;;;13.95;86.06
61573;BME280;47465;43.094;12.434;2023-04-24T02:11:37;98110.72;;;13.99;85.04
61573;BME280;47465;43.094;12.434;2023-04-24T02:14:05;98075.88;;;13.83;85.04
61573;BME280;47465;43.094;12.434;2023-04-24T02:16:31;98070.94;;;13.75;85.50
61573;BME280;47465;43.094;12.434;2023-04-24T02:18:58;98109.47;;;14.06;84.77
61573;BME280;47465;43.094;12.434;2023-04-24T02:21:24;98056.72;;;13.75;84.91
61573;BME280;47465;43.094;12.434;2023-04-24T02:23:50;98069.13;;;13.76;84.99
61573;BME280;47465;43.094;12.434;2023-04-24T02:26:16;98085.59;;;13.86;85.00
61573;BME280;47465;43.094;12.434;2023-04-24T02:28:43;98104.19;;;14.05;84.68
61573;BME280;47465;43.094;12.434;2023-04-24T02:31:11;98087.53;;;14.00;84.28
61573;BME280;47465;43.094;12.434;2023-04-24T02:33:37;98077.31;;;13.90;84.28
61573;BME280;47465;43.094;12.434;2023-04-24T02:36:03;98075.03;;;13.83;83.80
61573;BME280;47465;43.094;12.434;2023-04-24T02:38:29;98072.28;;;13.84;83.77
61573;BME280;47465;43.094;12.434;2023-04-24T02:40:55;98069.63;;;13.84;83.38
61573;BME280;47465;43.094;12.434;2023-04-24T02:43:21;98080.44;;;13.98;83.05
61573;BME280;47465;43.094;12.434;2023-04-24T02:45:47;98075.25;;;13.95;82.98
61573;BME280;47465;43.094;12.434;2023-04-24T02:48:14;98082.50;;;13.93;83.04
61573;BME280;47465;43.094;12.434;2023-04-24T02:50:40;98043.13;;;13.80;82.07
61573;BME280;47465;43.094;12.434;2023-04-24T02:53:06;98054.13;;;13.91;81.78
61573;BME280;47465;43.094;12.434;2023-04-24T02:55:32;98073.00;;;14.05;82.14
61573;BME280;47465;43.094;12.434;2023-04-24T02:57:58;98059.94;;;13.99;82.26
61573;BME280;47465;43.094;12.434;2023-04-24T03:00:24;98044.91;;;13.96;82.02
61573;BME280;47465;43.094;12.434;2023-04-24T03:02:49;98041.78;;;13.88;82.59
61573;BME280;47465;43.094;12.434;2023-04-24T03:05:17;98026.38;;;13.76;83.03
61573;BME280;47465;43.094;12.434;2023-04-24T03:07:43;98044.78;;;13.82;83.57
61573;BME280;47465;43.094;12.434;2023-04-24T03:10:09;98039.69;;;13.77;83.77
61573;BME280;47465;43.094;12.434;2023-04-24T03:12:35;98024.56;;;13.76;83.62
61573;BME280;47465;43.094;12.434;2023-04-24T03:15:01;98043.44;;;13.91;83.67
61573;BME280;47465;43.094;12.434;2023-04-24T03:17:27;98001.88;;;13.68;83.61
61573;BME280;47465;43.094;12.434;2023-04-24T03:19:53;98030.38;;;13.85;83.83
61573;BME280;47465;43.094;12.434;2023-04-24T03:22:20;98027.63;;;13.86;84.00
61573;BME280;47465;43.094;12.434;2023-04-24T03:24:46;98001.00;;;13.67;84.13
61573;BME280;47465;43.094;12.434;2023-04-24T03:27:12;98030.44;;;13.83;84.45
61573;BME280;47465;43.094;12.434;2023-04-24T03:29:38;98037.63;;;13.83;84.79
61573;BME280;47465;43.094;12.434;2023-04-24T03:32:03;98051.13;;;13.97;84.35
61573;BME280;47465;43.094;12.434;2023-04-24T03:34:29;98034.69;;;13.87;84.74
61573;BME280;47465;43.094;12.434;2023-04-24T03:36:55;98026.00;;;13.84;84.90
61573;BME280;47465;43.094;12.434;2023-04-24T03:39:22;98004.75;;;13.81;84.94
61573;BME280;47465;43.094;12.434;2023-04-24T03:41:50;98030.06;;;13.91;85.35
61573;BME280;47465;43.094;12.434;2023-04-24T03:44:15;98040.59;;;13.94;85.07
61573;BME280;47465;43.094;12.434;2023-04-24T03:46:41;98039.81;;;13.92;85.01
61573;BME280;47465;43.094;12.434;2023-04-24T03:49:07;98042.34;;;13.95;84.76
61573;BME280;47465;43.094;12.434;2023-04-24T03:51:33;98038.94;;;13.91;85.09
61573;BME280;47465;43.094;12.434;2023-04-24T03:53:59;98023.16;;;13.87;84.77
61573;BME280;47465;43.094;12.434;2023-04-24T03:56:26;98040.44;;;13.97;84.80
61573;BME280;47465;43.094;12.434;2023-04-24T03:58:52;98036.28;;;13.91;84.90
61573;BME280;47465;43.094;12.434;2023-04-24T04:01:18;98012.00;;;13.79;85.16
61573;BME280;47465;43.094;12.434;2023-04-24T04:03:46;98010.28;;;13.77;85.21
61573;BME280;47465;43.094;12.434;2023-04-24T04:06:12;98031.47;;;13.98;84.84
61573;BME280;47465;43.094;12.434;2023-04-24T04:08:38;98014.28;;;13.86;85.35
61573;BME280;47465;43.094;12.434;2023-04-24T04:11:04;98011.69;;;13.85;85.47
61573;BME280;47465;43.094;12.434;2023-04-24T04:13:31;98012.84;;;13.79;85.73
61573;BME280;47465;43.094;12.434;2023-04-24T04:15:57;98016.94;;;13.86;85.79
61573;BME280;47465;43.094;12.434;2023-04-24T04:18:23;98020.47;;;13.87;86.33
61573;BME280;47465;43.094;12.434;2023-04-24T04:20:49;98009.50;;;13.75;85.92
61573;BME280;47465;43.094;12.434;2023-04-24T04:23:15;98018.84;;;13.84;86.01
61573;BME280;47465;43.094;12.434;2023-04-24T04:25:41;97998.09;;;13.72;85.59
61573;BME280;47465;43.094;12.434;2023-04-24T04:28:07;98011.84;;;13.82;85.70
61573;BME280;47465;43.094;12.434;2023-04-24T04:30:34;97982.53;;;13.63;85.75
61573;BME280;47465;43.094;12.434;2023-04-24T04:33:00;97993.72;;;13.71;85.71
61573;BME280;47465;43.094;12.434;2023-04-24T04:35:26;98005.00;;;13.76;85.59
61573;BME280;47465;43.094;12.434;2023-04-24T04:37:52;98022.53;;;13.82;85.89
61573;BME280;47465;43.094;12.434;2023-04-24T04:40:18;98015.38;;;13.82;85.85
61573;BME280;47465;43.094;12.434;2023-04-24T04:42:44;98011.75;;;13.83;86.16
61573;BME280;47465;43.094;12.434;2023-04-24T04:45:11;98000.16;;;13.67;86.68
61573;BME280;47465;43.094;12.434;2023-04-24T04:47:39;97998.03;;;13.73;86.62
61573;BME280;47465;43.094;12.434;2023-04-24T04:50:05;98002.25;;;13.77;86.68
61573;BME280;47465;43.094;12.434;2023-04-24T04:52:31;98009.06;;;13.83;87.24
61573;BME280;47465;43.094;12.434;2023-04-24T04:54:57;97989.00;;;13.59;88.13
61573;BME280;47465;43.094;12.434;2023-04-24T04:57:23;98016.22;;;13.83;87.93
61573;BME280;47465;43.094;12.434;2023-04-24T04:59:49;97990.16;;;13.70;88.78
61573;BME280;47465;43.094;12.434;2023-04-24T05:02:15;98001.94;;;13.84;87.78
61573;BME280;47465;43.094;12.434;2023-04-24T05:04:42;97992.91;;;13.86;87.76
61573;BME280;47465;43.094;12.434;2023-04-24T05:07:08;97987.25;;;13.75;88.59
61573;BME280;47465;43.094;12.434;2023-04-24T05:09:34;97976.56;;;13.75;88.51
61573;BME280;47465;43.094;12.434;2023-04-24T05:12:00;97997.28;;;13.87;88.90
61573;BME280;47465;43.094;12.434;2023-04-24T05:14:27;98007.03;;;13.88;89.38
61573;BME280;47465;43.094;12.434;2023-04-24T05:16:53;97991.56;;;13.77;90.24
61573;BME280;47465;43.094;12.434;2023-04-24T05:19:19;98025.34;;;13.96;90.51
61573;BME280;47465;43.094;12.434;2023-04-24T05:21:47;97983.81;;;13.73;90.72
61573;BME280;47465;43.094;12.434;2023-04-24T05:24:13;98021.72;;;13.97;90.52
61573;BME280;47465;43.094;12.434;2023-04-24T05:26:39;98008.50;;;13.94;90.46
61573;BME280;47465;43.094;12.434;2023-04-24T05:29:05;98030.34;;;14.02;91.03
61573;BME280;47465;43.094;12.434;2023-04-24T05:31:31;98021.41;;;14.03;90.81
61573;BME280;47465;43.094;12.434;2023-04-24T05:33:57;98007.59;;;13.95;91.01
61573;BME280;47465;43.094;12.434;2023-04-24T05:36:23;97986.75;;;13.84;91.49
61573;BME280;47465;43.094;12.434;2023-04-24T05:38:50;97981.81;;;13.76;93.99
61573;BME280;47465;43.094;12.434;2023-04-24T05:41:16;98033.28;;;13.97;96.27
61573;BME280;47465;43.094;12.434;2023-04-24T05:43:42;98030.22;;;13.88;99.66
61573;BME280;47465;43.094;12.434;2023-04-24T05:46:08;98010.59;;;13.54;100.00
61573;BME280;47465;43.094;12.434;2023-04-24T05:48:34;98008.59;;;13.40;100.00
61573;BME280;47465;43.094;12.434;2023-04-24T05:51:00;98033.06;;;13.32;100.00
61573;BME280;47465;43.094;12.434;2023-04-24T05:53:26;98016.81;;;13.18;100.00
61573;BME280;47465;43.094;12.434;2023-04-24T05:55:54;97975.13;;;13.15;100.00
61573;BME280;47465;43.094;12.434;2023-04-24T05:58:20;98004.69;;;13.30;100.00
61573;BME280;47465;43.094;12.434;2023-04-24T06:00:45;97974.06;;;13.01;100.00
61573;BME280;47465;43.094;12.434;2023-04-24T06:03:12;97930.44;;;12.84;100.00
61573;BME280;47465;43.094;12.434;2023-04-24T06:05:38;97929.47;;;12.85;100.00
61573;BME280;47465;43.094;12.434;2023-04-24T06:08:04;97940.56;;;12.95;100.00
61573;BME280;47465;43.094;12.434;2023-04-24T06:10:30;97943.66;;;12.86;100.00
61573;BME280;47465;43.094;12.434;2023-04-24T06:12:57;97927.44;;;12.73;100.00
61573;BME280;47465;43.094;12.434;2023-04-24T06:15:28;97936.00;;;12.80;100.00
61573;BME280;47465;43.094;12.434;2023-04-24T06:17:54;97919.06;;;12.62;100.00
61573;BME280;47465;43.094;12.434;2023-04-24T06:20:20;97918.38;;;12.58;100.00
61573;BME280;47465;43.094;12.434;2023-04-24T06:22:46;97938.25;;;12.70;100.00
61573;BME280;47465;43.094;12.434;2023-04-24T06:25:12;97971.06;;;12.89;100.00
61573;BME280;47465;43.094;12.434;2023-04-24T06:27:38;97972.50;;;12.97;100.00
61573;BME280;47465;43.094;12.434;2023-04-24T06:30:07;97968.19;;;12.94;100.00
61573;BME280;47465;43.094;12.434;2023-04-24T06:32:33;97935.91;;;12.81;100.00
61573;BME280;47465;43.094;12.434;2023-04-24T06:34:59;97992.31;;;13.10;100.00
61573;BME280;47465;43.094;12.434;2023-04-24T06:37:25;97946.34;;;12.86;100.00
61573;BME280;47465;43.094;12.434;2023-04-24T06:39:51;97973.38;;;12.97;100.00
61573;BME280;47465;43.094;12.434;2023-04-24T06:42:18;97985.53;;;13.03;100.00
61573;BME280;47465;43.094;12.434;2023-04-24T06:44:46;97963.38;;;12.83;100.00
61573;BME280;47465;43.094;12.434;2023-04-24T06:47:13;97993.56;;;13.20;100.00
61573;BME280;47465;43.094;12.434;2023-04-24T06:49:41;97961.63;;;13.01;100.00
61573;BME280;47465;43.094;12.434;2023-04-24T06:52:07;97953.44;;;13.04;100.00
61573;BME280;47465;43.094;12.434;2023-04-24T06:54:33;98009.09;;;13.31;100.00
61573;BME280;47465;43.094;12.434;2023-04-24T06:56:59;97981.97;;;12.85;100.00
61573;BME280;47465;43.094;12.434;2023-04-24T06:59:28;97996.44;;;12.98;100.00
61573;BME280;47465;43.094;12.434;2023-04-24T07:01:54;97983.63;;;12.87;100.00
61573;BME280;47465;43.094;12.434;2023-04-24T07:04:22;97981.22;;;13.00;100.00
61573;BME280;47465;43.094;12.434;2023-04-24T07:06:48;97997.31;;;13.16;100.00
61573;BME280;47465;43.094;12.434;2023-04-24T07:09:16;98035.72;;;13.50;100.00
61573;BME280;47465;43.094;12.434;2023-04-24T07:11:44;98032.44;;;13.62;100.00
61573;BME280;47465;43.094;12.434;2023-04-24T07:14:10;98008.25;;;13.48;100.00
61573;BME280;47465;43.094;12.434;2023-04-24T07:16:36;97997.06;;;13.40;100.00
61573;BME280;47465;43.094;12.434;2023-04-24T07:19:02;98010.19;;;13.44;100.00
61573;BME280;47465;43.094;12.434;2023-04-24T07:21:29;98039.91;;;13.55;100.00
61573;BME280;47465;43.094;12.434;2023-04-24T07:23:56;97985.16;;;13.29;100.00
61573;BME280;47465;43.094;12.434;2023-04-24T07:26:22;97978.31;;;13.41;100.00
61573;BME280;47465;43.094;12.434;2023-04-24T07:28:48;97981.78;;;13.43;100.00
61573;BME280;47465;43.094;12.434;2023-04-24T07:31:14;97979.66;;;13.32;100.00
61573;BME280;47465;43.094;12.434;2023-04-24T07:33:40;97964.88;;;13.43;100.00
61573;BME280;47465;43.094;12.434;2023-04-24T07:36:07;97964.34;;;13.53;100.00
61573;BME280;47465;43.094;12.434;2023-04-24T07:38:34;97968.16;;;13.48;100.00
61573;BME280;47465;43.094;12.434;2023-04-24T07:41:00;97983.69;;;13.74;100.00
61573;BME280;47465;43.094;12.434;2023-04-24T07:43:27;97968.28;;;13.97;100.00
61573;BME280;47465;43.094;12.434;2023-04-24T07:45:53;98000.41;;;14.62;99.60
61573;BME280;47465;43.094;12.434;2023-04-24T07:48:20;97979.97;;;14.77;98.85
61573;BME280;47465;43.094;12.434;2023-04-24T07:50:47;97963.38;;;14.86;93.66
61573;BME280;47465;43.094;12.434;2023-04-24T07:53:13;97971.56;;;14.99;95.34
61573;BME280;47465;43.094;12.434;2023-04-24T07:55:41;97994.59;;;15.02;96.43
61573;BME280;47465;43.094;12.434;2023-04-24T07:58:06;97985.88;;;14.98;97.56
61573;BME280;47465;43.094;12.434;2023-04-24T08:00:33;97960.84;;;14.99;98.76
61573;BME280;47465;43.094;12.434;2023-04-24T08:02:58;97956.00;;;15.06;97.60
61573;BME280;47465;43.094;12.434;2023-04-24T08:05:24;97971.41;;;14.86;98.19
61573;BME280;47465;43.094;12.434;2023-04-24T08:07:53;97961.91;;;14.65;99.45
61573;BME280;47465;43.094;12.434;2023-04-24T08:10:18;97972.09;;;14.74;100.00
61573;BME280;47465;43.094;12.434;2023-04-24T08:12:46;97963.38;;;14.86;99.75
61573;BME280;47465;43.094;12.434;2023-04-24T08:15:12;97968.78;;;14.85;100.00
61573;BME280;47465;43.094;12.434;2023-04-24T08:17:38;97957.41;;;14.81;100.00
61573;BME280;47465;43.094;12.434;2023-04-24T08:20:05;97990.13;;;14.86;100.00
61573;BME280;47465;43.094;12.434;2023-04-24T08:22:31;97961.03;;;14.80;100.00
61573;BME280;47465;43.094;12.434;2023-04-24T08:24:59;97955.66;;;15.42;100.00
61573;BME280;47465;43.094;12.434;2023-04-24T08:27:26;97999.03;;;15.93;99.27
61573;BME280;47465;43.094;12.434;2023-04-24T08:29:54;97960.47;;;16.66;95.39
61573;BME280;47465;43.094;12.434;2023-04-24T08:32:20;97950.72;;;17.19;92.68
61573;BME280;47465;43.094;12.434;2023-04-24T08:34:46;97972.84;;;17.37;91.74
61573;BME280;47465;43.094;12.434;2023-04-24T08:37:13;97957.66;;;17.36;89.55
61573;BME280;47465;43.094;12.434;2023-04-24T08:39:39;97966.56;;;17.77;85.84
61573;BME280;47465;43.094;12.434;2023-04-24T08:42:05;97963.47;;;17.96;85.54
61573;BME280;47465;43.094;12.434;2023-04-24T08:44:34;97985.28;;;18.55;83.68
61573;BME280;47465;43.094;12.434;2023-04-24T08:47:03;97948.28;;;19.31;78.00
61573;BME280;47465;43.094;12.434;2023-04-24T08:49:29;97950.78;;;18.97;76.49
61573;BME280;47465;43.094;12.434;2023-04-24T08:51:56;97958.63;;;18.26;81.31
61573;BME280;47465;43.094;12.434;2023-04-24T08:54:22;97967.22;;;18.19;83.04
61573;BME280;47465;43.094;12.434;2023-04-24T08:56:49;97945.28;;;17.99;83.33
61573;BME280;47465;43.094;12.434;2023-04-24T08:59:16;97970.41;;;17.60;85.56
61573;BME280;47465;43.094;12.434;2023-04-24T09:01:42;97975.13;;;17.69;86.81
61573;BME280;47465;43.094;12.434;2023-04-24T09:04:12;97945.13;;;17.62;85.85
61573;BME280;47465;43.094;12.434;2023-04-24T09:06:41;97948.59;;;17.77;83.43
61573;BME280;47465;43.094;12.434;2023-04-24T09:09:08;97954.75;;;18.18;83.18
61573;BME280;47465;43.094;12.434;2023-04-24T09:11:39;97918.59;;;18.09;83.49
61573;BME280;47465;43.094;12.434;2023-04-24T09:14:06;97911.56;;;18.19;81.95
61573;BME280;47465;43.094;12.434;2023-04-24T09:16:34;97940.25;;;18.57;81.04
61573;BME280;47465;43.094;12.434;2023-04-24T09:19:01;97920.94;;;19.00;77.74
61573;BME280;47465;43.094;12.434;2023-04-24T09:21:32;97907.97;;;18.81;77.22
61573;BME280;47465;43.094;12.434;2023-04-24T09:23:59;97920.75;;;18.91;75.08
61573;BME280;47465;43.094;12.434;2023-04-24T09:26:25;97927.28;;;18.25;79.61
61573;BME280;47465;43.094;12.434;2023-04-24T09:28:53;97968.22;;;17.92;84.23
61573;BME280;47465;43.094;12.434;2023-04-24T09:31:19;97961.34;;;17.48;85.49
61573;BME280;47465;43.094;12.434;2023-04-24T09:33:54;97924.97;;;16.75;92.99
61573;BME280;47465;43.094;12.434;2023-04-24T09:36:28;97938.56;;;16.45;93.27
61573;BME280;47465;43.094;12.434;2023-04-24T09:38:58;97961.97;;;16.00;100.00
61573;BME280;47465;43.094;12.434;2023-04-24T09:41:25;97967.13;;;15.74;100.00
61573;BME280;47465;43.094;12.434;2023-04-24T09:43:53;97949.03;;;15.33;100.00
61573;BME280;47465;43.094;12.434;2023-04-24T09:46:21;97962.22;;;15.36;100.00
61573;BME280;47465;43.094;12.434;2023-04-24T09:48:57;97988.59;;;15.89;100.00
61573;BME280;47465;43.094;12.434;2023-04-24T09:51:36;97938.84;;;16.55;100.00
61573;BME280;47465;43.094;12.434;2023-04-24T09:54:04;97934.06;;;16.87;100.00
61573;BME280;47465;43.094;12.434;2023-04-24T09:56:33;97917.56;;;17.33;100.00
61573;BME280;47465;43.094;12.434;2023-04-24T09:59:04;97924.38;;;17.64;100.00
61573;BME280;47465;43.094;12.434;2023-04-24T10:01:31;97952.81;;;18.07;98.00
61573;BME280;47465;43.094;12.434;2023-04-24T10:03:57;97945.50;;;17.96;93.16
61573;BME280;47465;43.094;12.434;2023-04-24T10:06:31;97939.03;;;18.24;93.13
61573;BME280;47465;43.094;12.434;2023-04-24T10:08:59;97918.72;;;18.57;91.81
61573;BME280;47465;43.094;12.434;2023-04-24T10:11:26;97944.00;;;18.80;87.85
61573;BME280;47465;43.094;12.434;2023-04-24T10:13:53;97912.53;;;18.31;85.67
61573;BME280;47465;43.094;12.434;2023-04-24T10:16:19;97904.25;;;18.21;86.22
61573;BME280;47465;43.094;12.434;2023-04-24T10:18:48;97910.44;;;17.98;90.79
61573;BME280;47465;43.094;12.434;2023-04-24T10:21:14;97923.41;;;18.66;88.85
61573;BME280;47465;43.094;12.434;2023-04-24T10:23:41;97929.19;;;19.10;87.50
61573;BME280;47465;43.094;12.434;2023-04-24T10:26:09;97908.03;;;18.93;87.70
61573;BME280;47465;43.094;12.434;2023-04-24T10:28:36;97906.16;;;18.69;86.77
61573;BME280;47465;43.094;12.434;2023-04-24T10:31:02;97931.59;;;18.65;87.45
61573;BME280;47465;43.094;12.434;2023-04-24T10:33:29;97898.75;;;18.23;86.64
61573;BME280;47465;43.094;12.434;2023-04-24T10:35:56;97902.03;;;18.15;87.84
61573;BME280;47465;43.094;12.434;2023-04-24T10:38:25;97897.91;;;18.22;89.46
61573;BME280;47465;43.094;12.434;2023-04-24T10:40:57;97882.28;;;18.27;87.15
61573;BME280;47465;43.094;12.434;2023-04-24T10:43:33;97919.59;;;18.45;85.79
61573;BME280;47465;43.094;12.434;2023-04-24T10:46:01;97880.59;;;17.50;72.95
61573;BME280;47465;43.094;12.434;2023-04-24T10:48:27;97900.41;;;17.61;75.74
61573;BME280;47465;43.094;12.434;2023-04-24T10:50:53;97877.69;;;17.40;76.10
61573;BME280;47465;43.094;12.434;2023-04-24T10:53:21;97873.19;;;17.53;71.82
61573;BME280;47465;43.094;12.434;2023-04-24T10:55:49;97863.06;;;18.08;66.97
61573;BME280;47465;43.094;12.434;2023-04-24T10:58:16;97877.72;;;18.78;71.33
61573;BME280;47465;43.094;12.434;2023-04-24T11:00:47;97881.13;;;19.04;63.11
61573;BME280;47465;43.094;12.434;2023-04-24T11:03:26;97881.69;;;18.85;63.13
61573;BME280;47465;43.094;12.434;2023-04-24T11:05:57;97899.72;;;18.35;61.84
61573;BME280;47465;43.094;12.434;2023-04-24T11:08:26;97871.34;;;18.55;59.88
61573;BME280;47465;43.094;12.434;2023-04-24T11:11:00;97861.81;;;18.62;62.26
61573;BME280;47465;43.094;12.434;2023-04-24T11:14:00;97868.00;;;18.51;53.87
61573;BME280;47465;43.094;12.434;2023-04-24T11:16:20;97840.41;;;18.84;57.45
61573;BME280;47465;43.094;12.434;2023-04-24T11:18:50;97861.38;;;18.92;53.72
61573;BME280;47465;43.094;12.434;2023-04-24T11:21:18;97848.25;;;18.63;53.16
61573;BME280;47465;43.094;12.434;2023-04-24T11:23:44;97852.59;;;18.53;49.66
61573;BME280;47465;43.094;12.434;2023-04-24T11:26:11;97859.72;;;18.54;49.13
61573;BME280;47465;43.094;12.434;2023-04-24T11:28:44;97873.16;;;18.91;49.11
61573;BME280;47465;43.094;12.434;2023-04-24T11:31:39;97892.28;;;19.35;50.93
61573;BME280;47465;43.094;12.434;2023-04-24T11:34:10;97876.19;;;19.22;48.88
61573;BME280;47465;43.094;12.434;2023-04-24T11:36:37;97845.22;;;18.92;49.35
61573;BME280;47465;43.094;12.434;2023-04-24T11:39:04;97880.31;;;19.50;50.11
61573;BME280;47465;43.094;12.434;2023-04-24T11:41:30;97872.41;;;19.71;49.10
61573;BME280;47465;43.094;12.434;2023-04-24T11:43:56;97851.63;;;19.49;47.60
61573;BME280;47465;43.094;12.434;2023-04-24T11:46:22;97850.59;;;19.27;48.82
61573;BME280;47465;43.094;12.434;2023-04-24T11:48:50;97890.31;;;19.83;47.36
61573;BME280;47465;43.094;12.434;2023-04-24T11:51:16;97869.97;;;19.90;49.23
61573;BME280;47465;43.094;12.434;2023-04-24T11:53:42;97855.91;;;19.52;49.07
61573;BME280;47465;43.094;12.434;2023-04-24T11:56:09;97863.16;;;19.51;48.13
61573;BME280;47465;43.094;12.434;2023-04-24T11:58:35;97903.22;;;19.44;47.57
61573;BME280;47465;43.094;12.434;2023-04-24T12:01:01;97866.63;;;19.18;48.52
61573;BME280;47465;43.094;12.434;2023-04-24T12:03:27;97897.63;;;19.59;47.88
61573;BME280;47465;43.094;12.434;2023-04-24T12:06:04;97870.38;;;19.39;47.27
61573;BME280;47465;43.094;12.434;2023-04-24T12:08:31;97893.34;;;19.67;46.54
61573;BME280;47465;43.094;12.434;2023-04-24T12:10:57;97911.16;;;19.70;46.08
61573;BME280;47465;43.094;12.434;2023-04-24T12:13:25;97880.41;;;19.95;46.63
61573;BME280;47465;43.094;12.434;2023-04-24T12:15:51;97886.53;;;20.31;46.68
61573;BME280;47465;43.094;12.434;2023-04-24T12:18:17;97909.63;;;20.24;44.83
61573;BME280;47465;43.094;12.434;2023-04-24T12:20:43;97891.25;;;19.60;46.09
61573;BME280;47465;43.094;12.434;2023-04-24T12:23:11;97906.28;;;19.04;47.47
61573;BME280;47465;43.094;12.434;2023-04-24T12:25:38;97888.25;;;19.40;47.77
61573;BME280;47465;43.094;12.434;2023-04-24T12:28:12;97912.41;;;19.88;47.27
61573;BME280;47465;43.094;12.434;2023-04-24T12:30:40;97884.66;;;19.17;46.87
61573;BME280;47465;43.094;12.434;2023-04-24T12:33:06;97864.78;;;18.83;47.71
61573;BME280;47465;43.094;12.434;2023-04-24T12:35:33;97885.00;;;18.76;48.13
61573;BME280;47465;43.094;12.434;2023-04-24T12:38:05;97877.59;;;19.03;48.14
61573;BME280;47465;43.094;12.434;2023-04-24T12:40:33;97852.09;;;18.96;48.62
61573;BME280;47465;43.094;12.434;2023-04-24T12:42:59;97856.28;;;19.00;48.91
61573;BME280;47465;43.094;12.434;2023-04-24T12:45:25;97869.47;;;19.27;48.99
61573;BME280;47465;43.094;12.434;2023-04-24T12:47:53;97862.00;;;19.31;47.98